Time;durP1;ratioP1;P1;durP2;ratioP2;P2;SDS_P1;SDS_P2;PMS_P1;PMS_P2;Temp;Humidity;BMP_temperature;BMP_pressure;BME280_temperature;BME280_humidity;BME280_pressure;Samples;Min_cycle;Max_cycle;Signal;HPM_P1;HPM_P2
2023/01/03 00:01:44;;;;;;;1.60;1.20;;;7.60;98.20;;;;;;5052043;28;20482;-78
2023/01/03 00:04:12;;;;;;;1.60;1.20;;;7.60;98.20;;;;;;5060618;28;20465;-75
2023/01/03 00:06:41;;;;;;;1.60;1.30;;;7.50;98.20;;;;;;5055859;28;20485;-75
2023/01/03 00:09:10;;;;;;;1.60;1.20;;;7.50;98.20;;;;;;5063509;28;20485;-76
2023/01/03 00:14:27;;;;;;;1.63;1.20;;;7.40;98.20;;;;;;5063580;28;20542;-76
2023/01/03 00:16:57;;;;;;;1.60;1.30;;;7.40;98.20;;;;;;5050878;28;20814;-76
2023/01/03 00:19:26;;;;;;;1.60;1.20;;;7.40;98.20;;;;;;5062294;28;20485;-77
2023/01/03 00:21:53;;;;;;;1.70;1.47;;;7.40;98.20;;;;;;5052924;28;21020;-76
2023/01/03 00:24:20;;;;;;;1.63;1.30;;;7.40;98.20;;;;;;5066417;28;20453;-75
2023/01/03 00:26:47;;;;;;;1.60;1.30;;;7.40;98.20;;;;;;5051480;28;20927;-76
2023/01/03 00:29:14;;;;;;;1.60;1.20;;;7.40;98.20;;;;;;5065002;28;20473;-75
2023/01/03 00:31:42;;;;;;;1.70;1.30;;;7.40;98.20;;;;;;5049579;28;20865;-76
2023/01/03 00:34:10;;;;;;;1.60;1.30;;;7.40;98.20;;;;;;5060654;28;20464;-77
2023/01/03 00:36:38;;;;;;;1.70;1.30;;;7.40;98.20;;;;;;5048829;28;20474;-76
2023/01/03 00:39:05;;;;;;;1.60;1.30;;;7.40;98.20;;;;;;5064541;28;21048;-74
2023/01/03 00:41:32;;;;;;;1.60;1.23;;;7.40;98.20;;;;;;5051647;28;20474;-77
2023/01/03 00:43:59;;;;;;;1.70;1.37;;;7.30;98.20;;;;;;5057757;28;20461;-78
2023/01/03 00:46:25;;;;;;;1.70;1.40;;;7.40;98.20;;;;;;5053377;28;20493;-77
2023/01/03 00:48:52;;;;;;;1.60;1.30;;;7.30;98.20;;;;;;5061869;28;20480;-76
2023/01/03 00:51:22;;;;;;;1.60;1.20;;;7.30;98.20;;;;;;5055508;28;20493;-77
2023/01/03 00:53:51;;;;;;;1.60;1.30;;;7.30;98.20;;;;;;5061817;28;20462;-77
2023/01/03 00:56:20;;;;;;;1.63;1.30;;;7.30;98.20;;;;;;5053492;28;20482;-77
2023/01/03 00:58:47;;;;;;;1.60;1.20;;;7.30;98.20;;;;;;5060310;28;20492;-76
2023/01/03 01:01:16;;;;;;;1.63;1.30;;;7.30;98.20;;;;;;5051916;28;20486;-75
2023/01/03 01:03:46;;;;;;;1.60;1.20;;;7.30;98.20;;;;;;5052703;28;20464;-77
2023/01/03 01:06:15;;;;;;;1.60;1.27;;;7.30;98.20;;;;;;5057536;28;20473;-76
2023/01/03 01:08:44;;;;;;;1.60;1.30;;;7.30;98.20;;;;;;5068551;28;20474;-74
2023/01/03 01:11:12;;;;;;;1.60;1.30;;;7.20;98.20;;;;;;5050791;28;20485;-75
2023/01/03 01:13:39;;;;;;;1.60;1.30;;;7.20;98.20;;;;;;5062947;28;20458;-77
2023/01/03 01:16:09;;;;;;;1.70;1.30;;;7.20;98.20;;;;;;5055450;28;20502;-78
2023/01/03 01:18:37;;;;;;;1.60;1.27;;;7.20;98.20;;;;;;5058910;28;20496;-75
2023/01/03 01:21:05;;;;;;;1.70;1.40;;;7.10;98.20;;;;;;5052524;28;20470;-76
2023/01/03 01:23:32;;;;;;;1.67;1.30;;;7.10;98.20;;;;;;5049652;28;20868;-75
2023/01/03 01:26:02;;;;;;;1.60;1.30;;;7.10;98.20;;;;;;5055273;28;20834;-74
2023/01/03 01:28:29;;;;;;;1.67;1.30;;;7.10;98.20;;;;;;5057379;28;20682;-76
2023/01/03 01:30:58;;;;;;;1.60;1.30;;;7.00;98.20;;;;;;5055892;28;20469;-76
2023/01/03 01:33:25;;;;;;;1.63;1.30;;;7.00;98.20;;;;;;5061266;28;20461;-76
2023/01/03 01:35:51;;;;;;;1.70;1.47;;;6.90;98.20;;;;;;5058040;28;20465;-75
2023/01/03 01:38:18;;;;;;;1.60;1.30;;;6.90;98.20;;;;;;5056311;28;20488;-77
2023/01/03 01:40:45;;;;;;;1.60;1.30;;;6.90;98.20;;;;;;5067918;28;20465;-79
2023/01/03 01:46:12;;;;;;;1.60;1.30;;;6.80;98.20;;;;;;5055048;28;20472;-76
2023/01/03 01:48:40;;;;;;;1.60;1.30;;;6.80;98.20;;;;;;5060797;28;20873;-77
2023/01/03 01:51:09;;;;;;;1.63;1.30;;;6.80;98.20;;;;;;5052082;28;20828;-76
2023/01/03 01:53:37;;;;;;;1.60;1.30;;;6.70;98.20;;;;;;5061537;28;20458;-76
2023/01/03 01:56:07;;;;;;;1.63;1.30;;;6.70;98.20;;;;;;5055042;28;20461;-78
2023/01/03 01:58:41;;;;;;;1.60;1.30;;;6.60;98.20;;;;;;5067299;28;20495;-76
2023/01/03 02:01:12;;;;;;;1.70;1.40;;;6.60;98.20;;;;;;5050011;28;20487;-76
2023/01/03 02:03:41;;;;;;;1.63;1.30;;;6.50;98.20;;;;;;5054770;28;20515;-76
2023/01/03 02:06:10;;;;;;;1.60;1.30;;;6.50;98.20;;;;;;5054521;28;20474;-77
2023/01/03 02:08:37;;;;;;;1.60;1.30;;;6.50;98.20;;;;;;5060150;28;20978;-74
2023/01/03 02:11:19;;;;;;;1.63;1.30;;;6.50;98.20;;;;;;5056354;28;20913;-76
2023/01/03 02:13:55;;;;;;;1.70;1.40;;;6.50;98.20;;;;;;5049593;28;20481;-77
2023/01/03 02:16:39;;;;;;;1.70;1.30;;;6.50;98.20;;;;;;5049233;28;20824;-75
2023/01/03 02:19:26;;;;;;;2.53;2.33;;;6.50;98.20;;;;;;5058438;28;20818;-76
2023/01/03 02:22:20;;;;;;;1.70;1.30;;;6.40;98.20;;;;;;5053753;28;20484;-76
2023/01/03 02:25:12;;;;;;;1.63;1.30;;;6.40;98.20;;;;;;5062965;28;20469;-76
2023/01/03 02:28:23;;;;;;;1.70;1.40;;;6.40;98.20;;;;;;5046834;28;20974;-76
2023/01/03 02:30:53;;;;;;;1.70;1.37;;;6.30;98.20;;;;;;5043337;28;20462;-77
2023/01/03 02:33:30;;;;;;;1.70;1.50;;;6.30;98.20;;;;;;5059002;28;20469;-76
2023/01/03 02:36:05;;;;;;;1.60;1.30;;;6.30;98.20;;;;;;5054266;28;20469;-75
2023/01/03 02:38:43;;;;;;;1.70;1.40;;;6.20;98.20;;;;;;5055160;28;20837;-75
2023/01/03 02:41:20;;;;;;;1.60;1.30;;;6.20;98.20;;;;;;5046550;28;20515;-78
2023/01/03 02:43:52;;;;;;;1.70;1.40;;;6.20;98.20;;;;;;5055151;28;20824;-77
2023/01/03 02:46:25;;;;;;;1.70;1.40;;;6.20;98.20;;;;;;5044108;28;21005;-76
2023/01/03 02:48:56;;;;;;;1.63;1.40;;;6.10;98.20;;;;;;5050175;28;20474;-74
2023/01/03 02:51:28;;;;;;;1.70;1.47;;;6.10;98.20;;;;;;5041883;28;20475;-74
2023/01/03 02:53:57;;;;;;;1.67;1.37;;;6.10;98.20;;;;;;5049299;28;20480;-76
2023/01/03 02:56:28;;;;;;;1.70;1.40;;;6.10;98.20;;;;;;5044116;28;20747;-78
2023/01/03 02:58:59;;;;;;;1.60;1.30;;;6.00;98.20;;;;;;5050212;28;20875;-77
2023/01/03 03:01:29;;;;;;;1.70;1.40;;;6.00;98.20;;;;;;5043927;28;20482;-77
2023/01/03 03:03:58;;;;;;;1.60;1.30;;;5.90;98.20;;;;;;5053766;28;20457;-78
2023/01/03 03:06:32;;;;;;;1.60;1.30;;;5.90;98.20;;;;;;5051711;28;21047;-78
2023/01/03 03:08:59;;;;;;;1.70;1.60;;;5.90;98.20;;;;;;5066041;28;20473;-80
2023/01/03 03:14:21;;;;;;;1.63;1.30;;;5.90;98.20;;;;;;5060313;28;20436;-75
2023/01/03 03:16:51;;;;;;;1.70;1.50;;;5.90;98.20;;;;;;5043089;28;20575;-75
2023/01/03 03:24:59;;;;;;;1.70;1.50;;;5.80;98.20;;;;;;5070864;28;20445;-77
2023/01/03 03:30:17;;;;;;;1.60;1.30;;;5.80;98.20;;;;;;5046488;28;20496;-74
2023/01/03 03:32:49;;;;;;;1.63;1.37;;;5.70;98.20;;;;;;5022829;28;20479;-74
2023/01/03 03:35:18;;;;;;;1.70;1.50;;;5.70;98.20;;;;;;5046691;28;20971;-74
2023/01/03 03:37:46;;;;;;;1.70;1.40;;;5.70;98.20;;;;;;5019488;28;20486;-74
2023/01/03 03:45:54;;;;;;;1.63;1.30;;;5.60;98.20;;;;;;5038467;28;20485;-73
2023/01/03 03:48:28;;;;;;;1.60;1.30;;;5.60;98.20;;;;;;5028119;28;20499;-73
2023/01/03 03:51:01;;;;;;;1.63;1.40;;;5.60;98.20;;;;;;5035347;28;20557;-74
2023/01/03 03:53:33;;;;;;;1.60;1.40;;;5.60;98.20;;;;;;5029413;28;20459;-73
2023/01/03 03:56:05;;;;;;;1.60;1.40;;;5.60;98.20;;;;;;5038411;28;20458;-73
2023/01/03 03:58:38;;;;;;;1.63;1.40;;;5.50;98.20;;;;;;5030984;28;20560;-73
2023/01/03 04:01:06;;;;;;;1.60;1.30;;;5.50;98.20;;;;;;5035263;28;20465;-74
2023/01/03 04:03:36;;;;;;;1.63;1.30;;;5.50;98.20;;;;;;5030431;28;20613;-73
2023/01/03 04:06:09;;;;;;;1.70;1.40;;;5.50;98.20;;;;;;5035077;28;21005;-73
2023/01/03 04:08:36;;;;;;;1.67;1.37;;;5.50;98.20;;;;;;5033645;28;20493;-73
2023/01/03 04:11:05;;;;;;;1.70;1.40;;;5.50;98.20;;;;;;5037179;28;20462;-73
2023/01/03 04:13:32;;;;;;;1.70;1.40;;;5.50;98.20;;;;;;5055896;28;21211;-73
2023/01/03 04:15:59;;;;;;;1.60;1.30;;;5.50;98.20;;;;;;5037874;28;20465;-74
2023/01/03 04:18:26;;;;;;;1.70;1.50;;;5.50;98.20;;;;;;5028000;28;20475;-73
2023/01/03 04:20:54;;;;;;;1.60;1.40;;;5.50;98.20;;;;;;5038345;28;20467;-75
2023/01/03 04:23:21;;;;;;;1.70;1.50;;;5.50;98.20;;;;;;5036111;28;20476;-74
2023/01/03 04:25:48;;;;;;;1.63;1.40;;;5.50;98.20;;;;;;5038227;28;20466;-73
2023/01/03 04:28:15;;;;;;;1.60;1.40;;;5.50;98.20;;;;;;5015063;28;20562;-74
2023/01/03 04:30:42;;;;;;;1.70;1.40;;;5.50;98.20;;;;;;5026251;28;20463;-73
2023/01/03 04:33:08;;;;;;;1.60;1.30;;;5.40;98.20;;;;;;5020040;28;20483;-74
2023/01/03 04:35:36;;;;;;;1.60;1.40;;;5.40;98.20;;;;;;5025960;28;20955;-73
2023/01/03 04:38:04;;;;;;;1.70;1.50;;;5.40;98.20;;;;;;5015380;28;20494;-73
2023/01/03 04:40:33;;;;;;;1.60;1.30;;;5.40;98.20;;;;;;5026750;28;20495;-73
2023/01/03 04:45:44;;;;;;;1.60;1.30;;;5.40;98.20;;;;;;5025525;28;20467;-74
2023/01/03 04:48:11;;;;;;;1.70;1.50;;;5.40;98.20;;;;;;5011977;28;20787;-73
2023/01/03 04:50:37;;;;;;;1.60;1.37;;;5.40;98.20;;;;;;5026831;28;20459;-73
2023/01/03 04:53:06;;;;;;;1.67;1.40;;;5.40;98.20;;;;;;5013363;28;20541;-74
2023/01/03 04:55:33;;;;;;;1.63;1.40;;;5.40;98.20;;;;;;5027020;28;20546;-73
2023/01/03 04:58:00;;;;;;;1.70;1.40;;;5.40;98.20;;;;;;5012328;28;21070;-73
2023/01/03 05:00:27;;;;;;;1.60;1.30;;;5.40;98.20;;;;;;5025540;28;21057;-74
2023/01/03 05:02:54;;;;;;;1.60;1.40;;;5.40;98.20;;;;;;5019191;28;20498;-73
2023/01/03 05:05:20;;;;;;;1.67;1.40;;;5.40;98.20;;;;;;5027607;28;20467;-74
2023/01/03 05:07:47;;;;;;;1.60;1.40;;;5.40;98.20;;;;;;5014878;28;20487;-74
2023/01/03 05:10:15;;;;;;;1.70;1.40;;;5.40;98.20;;;;;;5025199;28;20490;-74
2023/01/03 05:12:58;;;;;;;1.60;1.30;;;5.40;98.20;;;;;;5016967;28;20490;-74
2023/01/03 05:15:25;;;;;;;1.70;1.57;;;5.50;98.20;;;;;;5025688;28;20466;-75
2023/01/03 05:17:51;;;;;;;1.67;1.40;;;5.50;98.20;;;;;;5013173;28;20483;-74
2023/01/03 05:25:52;;;;;;;1.67;1.30;;;5.60;98.20;;;;;;5022364;28;20478;-73
2023/01/03 05:28:21;;;;;;;1.60;1.30;;;5.60;98.20;;;;;;5024942;28;21038;-73
2023/01/03 05:30:47;;;;;;;1.60;1.40;;;5.60;98.20;;;;;;5016876;28;20929;-74
2023/01/03 05:33:14;;;;;;;1.67;1.40;;;5.70;98.20;;;;;;5008145;28;20452;-74
2023/01/03 05:35:41;;;;;;;1.60;1.30;;;5.60;98.20;;;;;;5026280;28;20853;-74
2023/01/03 05:38:08;;;;;;;1.70;1.40;;;5.70;98.20;;;;;;5026637;28;20490;-74
2023/01/03 05:40:35;;;;;;;1.60;1.40;;;5.70;98.20;;;;;;5024332;28;20482;-75
2023/01/03 05:43:03;;;;;;;1.63;1.33;;;5.80;98.20;;;;;;4998144;28;20554;-74
2023/01/03 05:45:30;;;;;;;1.70;1.50;;;5.80;98.20;;;;;;5025177;28;20463;-73
2023/01/03 05:47:57;;;;;;;1.60;1.30;;;5.80;98.20;;;;;;4998902;28;20483;-74
2023/01/03 05:50:24;;;;;;;1.60;1.30;;;5.90;98.20;;;;;;5023883;28;20509;-74
2023/01/03 05:52:51;;;;;;;1.60;1.30;;;5.90;98.20;;;;;;4997152;28;20494;-74
2023/01/03 05:55:18;;;;;;;1.60;1.30;;;5.90;98.20;;;;;;5022802;28;20834;-73
2023/01/03 05:57:46;;;;;;;1.60;1.30;;;5.90;98.20;;;;;;5000672;28;20514;-75
2023/01/03 06:00:16;;;;;;;1.70;1.40;;;5.90;98.20;;;;;;5024373;28;20494;-74
2023/01/03 06:02:42;;;;;;;1.60;1.30;;;5.90;98.20;;;;;;5004469;28;20490;-74
2023/01/03 06:05:10;;;;;;;1.60;1.30;;;5.90;98.20;;;;;;5021455;28;20918;-73
2023/01/03 06:07:37;;;;;;;1.70;1.47;;;5.90;98.20;;;;;;5000984;28;20496;-74
2023/01/03 06:10:05;;;;;;;1.60;1.30;;;5.90;98.20;;;;;;5024737;28;20463;-73
2023/01/03 06:12:32;;;;;;;1.60;1.40;;;5.80;98.20;;;;;;5001263;28;20476;-73
2023/01/03 06:14:58;;;;;;;1.60;1.30;;;5.80;98.20;;;;;;5019633;28;20456;-73
2023/01/03 06:20:11;;;;;;;1.60;1.33;;;5.80;98.20;;;;;;5022412;28;20493;-73
2023/01/03 06:22:38;;;;;;;1.63;1.40;;;5.80;98.20;;;;;;5026242;28;20483;-73
2023/01/03 06:25:05;;;;;;;1.67;1.30;;;5.80;98.20;;;;;;5022489;28;20865;-73
2023/01/03 06:27:32;;;;;;;1.70;1.40;;;5.80;98.20;;;;;;5002125;28;20567;-73
2023/01/03 06:29:59;;;;;;;1.63;1.30;;;5.90;98.20;;;;;;5025169;28;20455;-73
2023/01/03 06:32:27;;;;;;;1.60;1.30;;;5.90;98.20;;;;;;5019718;28;20474;-73
2023/01/03 06:34:54;;;;;;;1.63;1.40;;;5.90;98.20;;;;;;5025755;28;20552;-75
2023/01/03 06:37:21;;;;;;;1.60;1.30;;;6.00;98.20;;;;;;5007659;28;20471;-73
2023/01/03 06:39:47;;;;;;;1.67;1.37;;;6.00;98.20;;;;;;5013390;28;20488;-73
2023/01/03 06:53:14;;;;;;;1.63;1.30;;;6.30;98.20;;;;;;4998972;28;20600;-73
2023/01/03 06:55:43;;;;;;;1.60;1.30;;;6.30;98.20;;;;;;5013592;28;20833;-73
2023/01/03 06:58:10;;;;;;;1.60;1.40;;;6.40;98.20;;;;;;5019255;28;20490;-73
2023/01/03 07:00:39;;;;;;;1.70;1.30;;;6.40;98.20;;;;;;5019037;28;20487;-73
2023/01/03 07:03:10;;;;;;;1.70;1.50;;;6.50;98.20;;;;;;5024454;28;20879;-73
2023/01/03 07:05:37;;;;;;;1.63;1.30;;;6.50;98.20;;;;;;5013778;28;20460;-73
2023/01/03 07:08:04;;;;;;;1.70;1.50;;;6.60;98.20;;;;;;5005115;28;20525;-73
2023/01/03 07:10:31;;;;;;;1.60;1.30;;;6.60;98.20;;;;;;5011551;28;20559;-73
2023/01/03 07:15:45;;;;;;;1.63;1.30;;;6.70;98.20;;;;;;5018519;28;20463;-73
2023/01/03 07:18:13;;;;;;;1.70;1.40;;;6.70;98.20;;;;;;5001120;28;20542;-73
2023/01/03 07:20:42;;;;;;;1.60;1.30;;;6.80;98.20;;;;;;5010287;28;20922;-73
2023/01/03 07:23:09;;;;;;;1.70;1.30;;;6.80;98.20;;;;;;5004477;28;20517;-73
2023/01/03 07:25:39;;;;;;;1.70;1.40;;;6.80;98.20;;;;;;5015094;28;20483;-74
2023/01/03 07:28:07;;;;;;;1.60;1.30;;;6.90;98.20;;;;;;5004911;28;20487;-73
2023/01/03 07:30:38;;;;;;;1.60;1.30;;;6.90;98.20;;;;;;5011174;28;20511;-75
2023/01/03 07:33:05;;;;;;;1.60;1.20;;;6.90;98.20;;;;;;5016797;28;20495;-73
2023/01/03 07:35:34;;;;;;;1.63;1.30;;;6.90;98.20;;;;;;5014400;28;20464;-74
2023/01/03 07:38:01;;;;;;;1.70;1.40;;;7.00;98.20;;;;;;5003923;28;20491;-74
2023/01/03 07:40:28;;;;;;;1.70;1.30;;;7.00;98.20;;;;;;5010874;28;20502;-74
2023/01/03 07:45:41;;;;;;;1.63;1.30;;;7.00;98.20;;;;;;5011316;28;20443;-74
2023/01/03 07:48:08;;;;;;;1.67;1.30;;;7.10;98.20;;;;;;4999522;28;20488;-74
2023/01/03 07:50:36;;;;;;;1.70;1.40;;;7.10;98.20;;;;;;5016172;28;20456;-74
2023/01/03 07:53:03;;;;;;;1.70;1.53;;;7.10;98.20;;;;;;5022533;28;20665;-74
2023/01/03 07:55:31;;;;;;;1.60;1.30;;;7.10;98.20;;;;;;5018170;28;20471;-74
2023/01/03 07:57:58;;;;;;;1.70;1.57;;;7.10;98.20;;;;;;5005888;28;20493;-74
2023/01/03 08:00:25;;;;;;;1.70;1.40;;;7.10;98.20;;;;;;5015841;28;20507;-74
2023/01/03 08:02:53;;;;;;;1.63;1.30;;;7.10;98.20;;;;;;5001024;28;20686;-73
2023/01/03 08:05:19;;;;;;;1.67;1.33;;;7.10;98.20;;;;;;5012650;28;20487;-74
2023/01/03 08:07:48;;;;;;;1.67;1.30;;;7.20;98.20;;;;;;5006144;28;20487;-74
2023/01/03 08:13:18;;;;;;;1.90;1.70;;;7.20;98.20;;;;;;5008236;28;20775;-74
2023/01/03 08:15:46;;;;;;;1.60;1.30;;;7.20;98.20;;;;;;5021929;28;20462;-74
2023/01/03 08:18:13;;;;;;;1.70;1.30;;;7.20;98.20;;;;;;5014020;28;20479;-74
2023/01/03 08:20:40;;;;;;;1.67;1.40;;;7.20;98.20;;;;;;5013443;28;20490;-75
2023/01/03 08:23:08;;;;;;;1.63;1.30;;;7.30;98.20;;;;;;5025010;28;20593;-74
2023/01/03 08:25:36;;;;;;;1.70;1.40;;;7.30;98.20;;;;;;5016983;28;20645;-74
2023/01/03 08:28:03;;;;;;;1.63;1.30;;;7.30;98.20;;;;;;5003133;28;20496;-74
2023/01/03 08:30:31;;;;;;;1.60;1.30;;;7.30;98.20;;;;;;5020392;28;20833;-74
2023/01/03 08:33:01;;;;;;;1.63;1.30;;;7.30;98.20;;;;;;5003474;28;20495;-74
2023/01/03 08:35:32;;;;;;;1.60;1.30;;;7.30;98.20;;;;;;5017146;28;20461;-75
2023/01/03 08:38:01;;;;;;;1.63;1.30;;;7.30;98.20;;;;;;4997441;28;20490;-73
2023/01/03 08:40:31;;;;;;;1.60;1.30;;;7.40;98.20;;;;;;5018864;28;20492;-74
2023/01/03 08:42:58;;;;;;;1.60;1.30;;;7.40;98.20;;;;;;5004422;28;20899;-74
2023/01/03 08:45:27;;;;;;;1.67;1.30;;;7.40;98.20;;;;;;5021403;28;20460;-74
2023/01/03 08:47:56;;;;;;;1.67;1.30;;;7.50;98.20;;;;;;5002669;28;20500;-74
2023/01/03 08:50:23;;;;;;;1.63;1.30;;;7.50;98.20;;;;;;5021587;28;20901;-74
2023/01/03 08:52:50;;;;;;;1.60;1.30;;;7.50;98.20;;;;;;5007291;28;20651;-75
2023/01/03 08:55:17;;;;;;;1.67;1.30;;;7.60;98.20;;;;;;5016757;28;20825;-74
2023/01/03 08:57:45;;;;;;;1.60;1.30;;;7.60;98.20;;;;;;5002609;28;20959;-75
2023/01/03 09:00:13;;;;;;;2.93;2.73;;;7.60;98.20;;;;;;5017994;28;20491;-74
2023/01/03 09:02:40;;;;;;;1.63;1.30;;;7.60;98.20;;;;;;5018899;28;20569;-73
2023/01/03 09:05:08;;;;;;;1.60;1.30;;;7.70;98.20;;;;;;5021727;28;20466;-73
2023/01/03 09:07:35;;;;;;;1.60;1.30;;;7.80;98.20;;;;;;5003372;28;20931;-73
2023/01/03 09:10:01;;;;;;;1.63;1.30;;;7.90;98.20;;;;;;5016349;28;20971;-73
2023/01/03 09:12:28;;;;;;;2.03;1.83;;;7.90;98.20;;;;;;5005362;28;20494;-73
2023/01/03 09:14:56;;;;;;;1.70;1.40;;;7.90;98.20;;;;;;5020043;28;20459;-73
2023/01/03 09:17:23;;;;;;;1.70;1.40;;;7.90;98.20;;;;;;5001054;28;20492;-74
2023/01/03 09:19:50;;;;;;;1.63;1.30;;;8.00;98.20;;;;;;5017460;28;20467;-73
2023/01/03 09:22:17;;;;;;;1.70;1.30;;;7.90;98.20;;;;;;5003977;28;20483;-73
2023/01/03 09:24:44;;;;;;;1.60;1.30;;;7.90;98.20;;;;;;5021941;28;20815;-74
2023/01/03 09:27:10;;;;;;;1.60;1.20;;;7.90;98.20;;;;;;5006812;28;21004;-73
2023/01/03 09:29:37;;;;;;;1.67;1.30;;;7.90;98.20;;;;;;5016396;28;20972;-72
2023/01/03 09:32:05;;;;;;;1.67;1.30;;;8.00;98.20;;;;;;5004400;28;20499;-73
2023/01/03 09:34:32;;;;;;;1.60;1.20;;;8.10;98.20;;;;;;5020150;28;20486;-73
2023/01/03 09:36:59;;;;;;;1.70;1.30;;;8.10;98.20;;;;;;5003981;28;20484;-74
2023/01/03 09:39:25;;;;;;;1.60;1.20;;;8.20;98.20;;;;;;5014913;28;20460;-73
2023/01/03 09:44:33;;;;;;;1.60;1.20;;;8.30;98.20;;;;;;5014670;28;20456;-73
2023/01/03 09:47:00;;;;;;;1.70;1.30;;;8.40;98.20;;;;;;5003763;28;20479;-74
2023/01/03 09:49:28;;;;;;;1.60;1.20;;;8.50;98.20;;;;;;5017871;28;20460;-73
2023/01/03 10:06:15;;;;;;;1.63;1.27;;;9.00;98.20;;;;;;5011848;28;21025;-74
2023/01/03 10:08:56;;;;;;;1.60;1.20;;;9.00;98.20;;;;;;5027744;28;20475;-74
2023/01/03 10:11:30;;;;;;;1.63;1.20;;;9.00;98.20;;;;;;5006778;28;20483;-73
2023/01/03 10:14:09;;;;;;;1.60;1.20;;;9.00;98.20;;;;;;5017921;28;20822;-74
2023/01/03 10:16:47;;;;;;;1.67;1.27;;;9.00;98.20;;;;;;5004125;28;20620;-74
2023/01/03 10:19:39;;;;;;;1.60;1.20;;;9.00;98.20;;;;;;5012173;28;20480;-74
2023/01/03 10:22:10;;;;;;;1.60;1.23;;;9.00;98.20;;;;;;4987515;28;20487;-74
2023/01/03 10:24:45;;;;;;;1.60;1.20;;;9.00;98.20;;;;;;5019944;28;20460;-74
2023/01/03 10:27:16;;;;;;;1.70;1.30;;;9.00;98.20;;;;;;4997856;28;20492;-74
2023/01/03 10:29:43;;;;;;;1.60;1.20;;;9.00;98.20;;;;;;5015689;28;20616;-74
2023/01/03 10:32:27;;;;;;;1.60;1.20;;;9.00;98.20;;;;;;5016859;28;20864;-74
2023/01/03 10:35:17;;;;;;;1.60;1.20;;;9.00;98.20;;;;;;5020200;28;20467;-74
2023/01/03 10:37:46;;;;;;;1.63;1.20;;;9.10;98.20;;;;;;5002958;28;20588;-74
2023/01/03 10:40:14;;;;;;;1.70;1.37;;;9.10;98.20;;;;;;5011221;28;21023;-74
2023/01/03 10:42:42;;;;;;;1.60;1.20;;;9.10;98.20;;;;;;5020632;28;20489;-74
2023/01/03 10:45:13;;;;;;;1.60;1.20;;;9.20;98.20;;;;;;5012139;28;20461;-75
2023/01/03 10:47:40;;;;;;;1.60;1.27;;;9.30;98.20;;;;;;5015740;28;21103;-74
2023/01/03 10:50:20;;;;;;;1.70;1.30;;;9.40;98.20;;;;;;5018818;28;20459;-75
2023/01/03 10:52:53;;;;;;;1.60;1.20;;;9.50;98.20;;;;;;5003216;28;20590;-74
2023/01/03 10:55:22;;;;;;;1.63;1.20;;;9.60;98.20;;;;;;5013425;28;20456;-74
2023/01/03 10:57:59;;;;;;;1.60;1.10;;;9.70;98.20;;;;;;5005825;28;20920;-74
2023/01/03 11:00:30;;;;;;;1.63;1.20;;;9.70;98.20;;;;;;5014773;28;20488;-74
2023/01/03 11:03:09;;;;;;;1.63;1.20;;;9.80;98.20;;;;;;4999782;28;20487;-74
2023/01/03 11:05:38;;;;;;;1.60;1.20;;;9.80;98.20;;;;;;5012288;28;20537;-74
2023/01/03 11:08:13;;;;;;;1.60;1.20;;;9.90;98.20;;;;;;5006780;28;20487;-74
2023/01/03 11:10:57;;;;;;;1.60;1.20;;;9.90;98.20;;;;;;5013129;28;20463;-74
2023/01/03 11:13:29;;;;;;;1.60;1.20;;;10.00;98.20;;;;;;5009695;28;21015;-74
2023/01/03 11:15:58;;;;;;;1.60;1.10;;;10.10;98.20;;;;;;5005680;28;20459;-74
2023/01/03 11:18:26;;;;;;;1.63;1.20;;;10.20;98.20;;;;;;5011843;28;20479;-74
2023/01/03 11:21:04;;;;;;;1.60;1.20;;;10.30;98.20;;;;;;5005860;28;20542;-75
2023/01/03 11:23:54;;;;;;;1.60;1.20;;;10.40;98.20;;;;;;5013748;28;20456;-75
2023/01/03 11:26:34;;;;;;;1.60;1.10;;;10.50;98.20;;;;;;5007430;28;21104;-75
2023/01/03 11:29:15;;;;;;;1.67;1.30;;;10.60;98.20;;;;;;5040613;28;20485;-75
2023/01/03 11:31:50;;;;;;;1.67;1.20;;;10.70;98.20;;;;;;5034458;28;20484;-76
2023/01/03 11:34:37;;;;;;;1.67;1.20;;;10.70;98.20;;;;;;5041567;28;20462;-75
2023/01/03 11:37:12;;;;;;;1.60;1.10;;;10.80;98.20;;;;;;5033694;28;20485;-75
2023/01/03 11:39:58;;;;;;;1.60;1.10;;;10.80;98.20;;;;;;5041431;28;20474;-75
2023/01/03 11:42:37;;;;;;;1.60;1.10;;;10.80;98.20;;;;;;5021813;28;20521;-75
2023/01/03 11:45:42;;;;;;;1.60;1.10;;;10.80;98.20;;;;;;5035765;28;20496;-75
2023/01/03 11:48:26;;;;;;;1.60;1.10;;;10.80;98.20;;;;;;5020029;28;20486;-75
2023/01/03 11:50:58;;;;;;;1.60;1.10;;;10.80;98.20;;;;;;5023019;28;20466;-75
2023/01/03 11:53:34;;;;;;;2.90;2.70;;;10.80;98.20;;;;;;5031009;28;20455;-75
2023/01/03 11:56:21;;;;;;;1.60;1.10;;;10.80;98.20;;;;;;5024385;28;20814;-75
2023/01/03 11:59:13;;;;;;;1.60;1.13;;;10.90;98.20;;;;;;5029898;28;20475;-75
2023/01/03 12:01:56;;;;;;;1.60;1.10;;;10.90;98.20;;;;;;5024686;28;20487;-75
2023/01/03 12:04:29;;;;;;;1.60;1.10;;;11.00;98.20;;;;;;5034756;28;20947;-74
2023/01/03 12:07:11;;;;;;;1.60;1.13;;;11.00;98.20;;;;;;5026122;28;20990;-74
2023/01/03 12:09:46;;;;;;;1.60;1.10;;;11.10;98.20;;;;;;5037258;28;20897;-74
2023/01/03 12:12:41;;;;;;;1.60;1.10;;;11.10;98.20;;;;;;5020624;28;20485;-74
2023/01/03 12:15:17;;;;;;;1.60;1.10;;;11.10;98.20;;;;;;5041663;28;20858;-74
2023/01/03 12:17:51;;;;;;;1.60;1.20;;;11.20;98.20;;;;;;5034372;28;20831;-74
2023/01/03 12:20:21;;;;;;;1.60;1.10;;;11.20;98.20;;;;;;5038182;28;20458;-75
2023/01/03 12:22:53;;;;;;;1.60;1.10;;;11.10;98.20;;;;;;5036693;28;21006;-75
2023/01/03 12:25:26;;;;;;;1.60;1.10;;;11.10;98.20;;;;;;5036714;28;20463;-74
2023/01/03 12:28:00;;;;;;;1.60;1.00;;;11.20;98.20;;;;;;5011413;28;20482;-75
2023/01/03 12:30:37;;;;;;;1.60;1.10;;;11.20;98.20;;;;;;5011628;28;20864;-75
2023/01/03 12:33:16;;;;;;;1.60;1.10;;;11.20;98.20;;;;;;5004223;28;20586;-75
2023/01/03 12:35:48;;;;;;;1.60;1.10;;;11.20;98.20;;;;;;5018405;28;20456;-75
2023/01/03 12:38:21;;;;;;;1.60;1.10;;;11.20;98.20;;;;;;5003160;28;20479;-75
2023/01/03 12:40:52;;;;;;;1.60;1.20;;;11.20;98.20;;;;;;5008021;28;20467;-75
2023/01/03 12:43:28;;;;;;;1.60;1.10;;;11.20;98.20;;;;;;5013611;28;20475;-74
2023/01/03 12:46:02;;;;;;;1.60;1.10;;;11.20;98.20;;;;;;5005354;28;20458;-74
2023/01/03 12:48:57;;;;;;;1.60;1.10;;;11.20;98.20;;;;;;5011953;28;20479;-74
2023/01/03 12:51:25;;;;;;;1.60;1.00;;;11.20;98.20;;;;;;5003934;28;20479;-74
2023/01/03 12:54:03;;;;;;;1.60;1.00;;;11.10;98.20;;;;;;5015675;28;20471;-75
2023/01/03 12:56:51;;;;;;;1.60;1.10;;;11.10;98.20;;;;;;5011952;28;20505;-75
2023/01/03 12:59:49;;;;;;;1.60;1.20;;;11.00;98.20;;;;;;5021872;28;20568;-74
2023/01/03 13:02:22;;;;;;;1.60;1.10;;;10.90;98.20;;;;;;5017459;28;20486;-74
2023/01/03 13:04:53;;;;;;;1.60;1.20;;;10.80;98.20;;;;;;5020091;28;20549;-74
2023/01/03 13:07:24;;;;;;;1.60;1.10;;;10.70;98.20;;;;;;5008481;28;20482;-74
2023/01/03 13:09:55;;;;;;;1.63;1.20;;;10.70;98.20;;;;;;5018548;28;20456;-75
2023/01/03 13:12:26;;;;;;;1.60;1.10;;;10.70;98.20;;;;;;5006590;28;20479;-75
2023/01/03 13:14:56;;;;;;;1.60;1.10;;;10.70;98.20;;;;;;5019471;28;20460;-75
2023/01/03 13:17:25;;;;;;;1.60;1.20;;;10.70;98.20;;;;;;5007434;28;20471;-75
2023/01/03 13:19:55;;;;;;;1.60;1.20;;;10.70;98.20;;;;;;5011559;28;20464;-75
2023/01/03 13:22:34;;;;;;;1.60;1.10;;;10.70;98.20;;;;;;5001233;28;20484;-74
2023/01/03 13:25:39;;;;;;;1.60;1.20;;;10.70;98.20;;;;;;5013829;28;20466;-74
2023/01/03 13:28:28;;;;;;;1.60;1.20;;;10.80;98.20;;;;;;5007017;28;20487;-74
2023/01/03 13:31:28;;;;;;;1.60;1.10;;;10.80;98.20;;;;;;5004591;28;20465;-74
2023/01/03 13:34:09;;;;;;;1.60;1.10;;;10.90;98.20;;;;;;5013613;28;20463;-74
2023/01/03 13:37:16;;;;;;;1.60;1.10;;;10.90;98.20;;;;;;5002386;28;20851;-75
2023/01/03 13:40:01;;;;;;;1.60;1.20;;;10.90;98.20;;;;;;5011868;28;20468;-75
2023/01/03 13:42:30;;;;;;;1.60;1.10;;;10.80;98.20;;;;;;5005144;28;20480;-74
2023/01/03 13:45:31;;;;;;;1.70;1.20;;;10.80;98.20;;;;;;5017973;28;20775;-75
2023/01/03 13:47:58;;;;;;;1.60;1.10;;;10.80;98.20;;;;;;5019163;28;20479;-74
2023/01/03 13:50:29;;;;;;;1.60;1.20;;;10.80;98.20;;;;;;5013000;28;20832;-74
2023/01/03 13:52:58;;;;;;;1.60;1.10;;;10.80;98.20;;;;;;5005710;28;20472;-74
2023/01/03 13:55:36;;;;;;;1.60;1.10;;;10.80;98.20;;;;;;5016682;28;20482;-74
2023/01/03 13:58:25;;;;;;;1.60;1.20;;;10.80;98.20;;;;;;5003552;28;20483;-74
2023/01/03 14:00:54;;;;;;;1.60;1.10;;;10.70;98.20;;;;;;5007987;28;20493;-74
2023/01/03 14:03:46;;;;;;;1.60;1.20;;;10.60;98.20;;;;;;5012565;28;20499;-74
2023/01/03 14:06:41;;;;;;;1.60;1.10;;;10.50;98.20;;;;;;4999544;28;20490;-74
2023/01/03 14:09:38;;;;;;;1.60;1.10;;;10.50;98.20;;;;;;4992558;28;20487;-74
2023/01/03 14:12:47;;;;;;;1.60;1.20;;;10.40;98.20;;;;;;5004504;28;20493;-74
2023/01/03 14:15:16;;;;;;;1.60;1.10;;;10.40;98.20;;;;;;4955724;28;20477;-74
2023/01/03 14:17:47;;;;;;;1.60;1.10;;;10.30;98.20;;;;;;4992218;28;20489;-75
2023/01/03 14:20:21;;;;;;;1.60;1.20;;;10.30;98.20;;;;;;5012402;28;20464;-74
2023/01/03 14:22:51;;;;;;;1.60;1.10;;;10.20;98.20;;;;;;5018128;28;20475;-74
2023/01/03 14:25:35;;;;;;;1.60;1.10;;;10.20;98.20;;;;;;5012062;28;20953;-74
2023/01/03 14:28:06;;;;;;;1.60;1.10;;;10.10;98.20;;;;;;5001497;28;20498;-74
2023/01/03 14:30:36;;;;;;;1.60;1.20;;;10.10;98.20;;;;;;5013603;28;20563;-74